Airfield :
LOGIN :

Register | Disclaimer

   EN    FR    IT 

 










Legend :    VFR   Marginal VFR   IFR   Intensive IFR   Very Intensive IFR
Visi :
Ceiling :
>= 8 km
>= 3000ft
5 to 8 km
1000 to 3000 ft
1500m to 5 km
500 to 1000 ft
800 to 1500m
200 to 500 ft
< 800m
< 200 ft
Symbols :   Thunderstorms  Fog  Heavy snow  Heavy precipitations  Wind > 20 kt
SIGMETs :     Misc.  Thunderstorms  Icing  Turbulence  Mountain Waves  Volcanic Ashes






- Airport Elevation : 1895 ft


LSMM - Meiringen

CURRENT METAR :
  • 101250Z 10004KT 070V130 9999 FEW042 00/M03 Q1027 RMK BLU+

EXPIRED METARs :
  • 101220Z 07002KT 9999 FEW043 M00/M02 Q1027 RMK BLU+
  • 101150Z AUTO VRB01KT 9999NDV NCD 00/M02 Q1028 RMK
  • 101120Z AUTO 00000KT 9999NDV NCD 01/M02 Q1027 RMK
  • 101020Z VRB01KT 9999 SCT047 01/M02 Q1028 RMK BLU+
  • 100950Z 07005KT 9999 FEW036 BKN049 01/M01 Q1028 RMK BLU

Expired Forecast.



MET'MAP, your aeronautical weather chart ! - Copyright ORBIFLY December 2007 - Disclaimer

ORBIFLY MET'MAP TEAM :

Programming & Development : Alexandra Zaïnal
Concept & original design : Baudouin d'Aumeries
Assistance for programming : Marc-Olivier Méhu
Technical & hardware support : Manuel Goepfert

Contact : metmap@orbifly.com




SOURCES & CREDITS :

   NOAA